Terminal Aerodrome Forecast
Issued by NWS

Home | Current Version | Previous Version | Graphics & Text | Print | Product List | Glossary On
Versions: 1 2 3 4 5 6 7 8 9 10 11 12 13 14
000
FTUS43 KGRB 091700
TAFATW
TAF
KATW 091723Z 0918/1018 32009G14KT P6SM VCSH SCT035 BKN060
      TEMPO 0918/0922 4SM -SHRA BKN035
     FM100000 33006KT P6SM SCT060
     FM100300 VRB03KT P6SM SKC
     FM101600 16006KT P6SM SCT035=

USA.gov is the U.S. government's official web portal to all federal, state and local government web resources and services.